This is the latest recevied weather packets stored in our database for station/object AA3CS-1. If no packets are shown the sender has not sent any weather packets the latest 10 day(s).
| Time | Temp. | Humidity | Pressure | Rain* | Wind** | Luminosity | Snow |
|---|---|---|---|---|---|---|---|
| 1777410017 | 20.56° C | 60% | 1012.7 hPa | 0 mm | - | 169 W/m² | - |
| 1777408217 | 21.67° C | 58% | 1012.7 hPa | 0 mm | - | 250 W/m² | - |
| 1777407917 | 21.11° C | 61% | 1012.7 hPa | 0 mm | - | 547 W/m² | - |
| 1777406717 | 21.11° C | 62% | 1012.7 hPa | 0 mm | - | 385 W/m² | - |
| 1777403117 | 21.11° C | 61% | 1012.9 hPa | 0 mm | - | 834 W/m² | - |
| 1777401317 | 20° C | 62% | 1012.9 hPa | 0 mm | - | 218 W/m² | - |
| 1777400717 | 20.56° C | 64% | 1012.8 hPa | 0 mm | - | 410 W/m² | - |
| 1777399817 | 20.56° C | 68% | 1012.8 hPa | 0 mm | - | 822 W/m² | - |
| 1777399517 | 20° C | 69% | 1012.8 hPa | 0 mm | - | 409 W/m² | - |
| 1777398937 | 20° C | 69% | 1012.9 hPa | 0 mm | - | 741 W/m² | - |
| 1777398637 | 19.44° C | 68% | 1012.9 hPa | 0 mm | - | 416 W/m² | - |
| 1777398017 | 19.44° C | 72% | 1012.9 hPa | 0 mm | - | 285 W/m² | - |
| 1777397717 | 19.44° C | 70% | 1013 hPa | 0 mm | - | 252 W/m² | - |
| 1777395917 | 18.89° C | 72% | 1012.9 hPa | 0 mm | - | 392 W/m² | - |
| 1777394717 | 18.33° C | 76% | 1013 hPa | 0 mm | - | 719 W/m² | - |
| 1777390517 | 15.56° C | 84% | 1013.1 hPa | 0 mm | - | 215 W/m² | - |
| 1777389037 | 15.56° C | 82% | 1012.9 hPa | 0 mm | - | 207 W/m² | - |
| 1777387517 | 14.44° C | 83% | 1012.9 hPa | 0 mm | - | 222 W/m² | - |
| 1777385737 | 13.89° C | 84% | 1012.7 hPa | 0 mm | - | 130 W/m² | - |
| 1777385116 | 13.89° C | 84% | 1012.6 hPa | 0 mm | - | 208 W/m² | - |
| 1777383617 | 13.33° C | 85% | 1012.5 hPa | 0 mm | - | 180 W/m² | - |
| 1777383317 | 12.78° C | 85% | 1012.5 hPa | 0 mm | - | 127 W/m² | - |
| 1777381857 | 12.78° C | 86% | 1012.3 hPa | 0 mm | - | 120 W/m² | - |
| 1777378817 | 12.78° C | 86% | 1012.1 hPa | 0 mm | - | 44 W/m² | - |
| 1777378516 | 12.78° C | 86% | 1012 hPa | 0 mm | - | 48 W/m² | - |
* Rain latest hour (hover to see other rain measurements)
** Current wind speed in m/s (hover to see current wind gust speed)